Time;durP1;ratioP1;P1;durP2;ratioP2;P2;SDS_P1;SDS_P2;PMS_P1;PMS_P2;Temp;Humidity;BMP_temperature;BMP_pressure;BME280_temperature;BME280_humidity;BME280_pressure;Samples;Min_cycle;Max_cycle;Signal;HPM_P1;HPM_P2
2021/12/07 00:02:11;;;;;;;8.27;1.77;;;;;;;8.28;61.48;99966.78;2325485;23;20850;-96
2021/12/07 00:04:38;;;;;;;17.13;2.08;;;;;;;8.39;61.79;99989.59;4937013;29;20064;-96
2021/12/07 00:09:43;;;;;;;19.17;1.83;;;;;;;8.47;61.13;99990.81;5015637;23;20059;-96
2021/12/07 00:12:09;;;;;;;12.43;2.25;;;;;;;8.62;61.05;99988.94;4902224;29;20128;-95
2021/12/07 00:14:39;;;;;;;9.27;2.50;;;;;;;8.50;60.87;99976.69;4921943;29;20028;-95
2021/12/07 00:17:06;;;;;;;7.35;1.55;;;;;;;8.59;60.83;99970.84;4922748;29;20040;-96
2021/12/07 00:19:32;;;;;;;16.80;3.45;;;;;;;8.59;60.30;99970.00;4920413;29;20024;-96
2021/12/07 00:21:57;;;;;;;10.68;2.28;;;;;;;8.60;61.12;99966.44;4921405;29;20029;-95
2021/12/07 00:24:23;;;;;;;13.68;2.08;;;;;;;8.60;60.46;99948.13;4921682;29;20036;-96
2021/12/07 00:26:48;;;;;;;14.90;2.05;;;;;;;8.58;60.78;99950.84;4921106;29;20038;-96
2021/12/07 00:29:15;;;;;;;11.88;1.80;;;;;;;8.55;60.35;99951.06;4921804;29;20038;-96
2021/12/07 00:31:51;;;;;;;5.68;1.58;;;;;;;8.57;60.91;99949.19;4921229;29;20118;-96
2021/12/07 00:34:44;;;;;;;8.95;1.55;;;;;;;8.46;60.61;99955.13;4921118;29;20036;-96
2021/12/07 00:37:02;;;;;;;14.27;1.80;;;;;;;8.46;60.96;99962.97;4926031;29;20100;-96
2021/12/07 00:39:28;;;;;;;8.90;1.90;;;;;;;8.41;61.43;99949.38;4923363;29;20083;-96
2021/12/07 00:41:55;;;;;;;10.98;1.67;;;;;;;8.37;60.96;99931.31;4927334;29;20032;-96
2021/12/07 00:44:21;;;;;;;12.13;1.88;;;;;;;8.47;61.10;99933.25;4924155;29;20520;-96
2021/12/07 00:46:48;;;;;;;10.02;1.48;;;;;;;8.41;61.38;99930.16;4924527;29;20036;-96
2021/12/07 00:49:15;;;;;;;9.32;1.88;;;;;;;8.44;62.01;99935.25;4927637;29;20004;-96
2021/12/07 00:51:40;;;;;;;6.65;2.03;;;;;;;8.42;61.48;99942.34;4926003;29;20020;-96
2021/12/07 00:54:06;;;;;;;12.35;1.95;;;;;;;8.33;61.49;99936.75;4928042;29;20028;-96
2021/12/07 00:56:31;;;;;;;6.68;1.48;;;;;;;8.38;61.59;99922.53;4926852;29;20044;-96
2021/12/07 00:58:57;;;;;;;7.95;1.33;;;;;;;8.36;61.67;99930.47;4928153;29;20024;-96
2021/12/07 01:01:22;;;;;;;13.32;4.10;;;;;;;8.36;61.11;99935.72;4927242;29;20089;-96
2021/12/07 01:03:50;;;;;;;10.70;1.60;;;;;;;8.34;60.51;99933.19;4925346;29;20040;-95
2021/12/07 01:25:05;;;;;;;13.43;2.17;;;;;;;7.86;62.01;99898.00;4926498;29;20079;-96
2021/12/07 01:27:31;;;;;;;7.85;1.40;;;;;;;7.79;61.09;99896.75;4927839;29;20047;-96
2021/12/07 01:30:09;;;;;;;13.38;2.90;;;;;;;7.77;61.79;99890.78;4925353;29;20016;-96
2021/12/07 01:49:33;;;;;;;11.27;1.77;;;;;;;7.21;61.50;99862.06;4931731;29;20025;-96
2021/12/07 01:51:24;;;;;;;8.32;1.23;;;;;;;7.22;62.59;99863.78;4932960;29;20036;-96
2021/12/07 02:01:44;;;;;;;5.20;1.08;;;;;;;7.04;62.66;99826.59;4925457;29;20039;-96
2021/12/07 02:04:10;;;;;;;5.30;1.10;;;;;;;7.01;62.53;99838.09;4929480;29;20092;-95
2021/12/07 02:06:35;;;;;;;7.03;1.50;;;;;;;6.99;62.66;99837.34;4930206;29;20394;-96
2021/12/07 02:09:03;;;;;;;6.80;1.25;;;;;;;6.92;62.17;99849.91;4935564;29;20032;-96
2021/12/07 02:11:29;;;;;;;7.65;2.10;;;;;;;6.88;62.67;99861.47;4939852;29;20036;-96
2021/12/07 02:16:21;;;;;;;9.82;1.35;;;;;;;6.77;62.72;99876.09;4938747;29;20020;-96
2021/12/07 02:18:47;;;;;;;8.40;1.80;;;;;;;6.71;63.43;99890.34;4938955;29;20034;-96
2021/12/07 02:21:22;;;;;;;14.80;1.85;;;;;;;6.60;63.34;99896.22;4938392;29;20024;-96
2021/12/07 02:23:48;;;;;;;11.15;1.95;;;;;;;6.68;62.98;99878.34;4936993;29;20035;-95
2021/12/07 02:26:14;;;;;;;10.57;1.95;;;;;;;6.71;62.96;99869.47;4937709;29;20028;-96
2021/12/07 02:28:40;;;;;;;8.65;1.42;;;;;;;6.78;63.34;99854.31;4937361;29;20039;-96
2021/12/07 02:31:08;;;;;;;14.50;2.60;;;;;;;6.86;63.96;99852.06;4933495;29;20028;-96
2021/12/07 02:33:34;;;;;;;16.23;1.90;;;;;;;6.70;63.37;99855.63;4928138;29;20040;-96
2021/12/07 02:36:00;;;;;;;9.68;2.33;;;;;;;6.78;63.85;99838.66;4927211;29;20052;-96
2021/12/07 02:38:25;;;;;;;10.43;1.90;;;;;;;6.82;63.88;99827.09;4926970;29;20061;-96
2021/12/07 02:40:52;;;;;;;10.80;2.63;;;;;;;6.86;63.59;99820.75;4926048;29;20028;-95
2021/12/07 02:43:17;;;;;;;6.30;1.70;;;;;;;6.89;63.29;99828.38;4927438;29;20032;-96
2021/12/07 02:45:44;;;;;;;7.70;2.15;;;;;;;6.80;63.73;99842.84;4927921;29;20038;-96
2021/12/07 02:48:09;;;;;;;6.88;1.50;;;;;;;6.83;63.54;99845.28;4925617;29;20012;-96
2021/12/07 02:50:35;;;;;;;7.28;2.00;;;;;;;6.81;63.73;99841.06;4939323;29;20435;-96
2021/12/07 02:53:01;;;;;;;8.10;2.10;;;;;;;6.78;63.56;99833.44;4925671;29;20028;-95
2021/12/07 02:55:27;;;;;;;11.30;1.30;;;;;;;6.77;63.48;99816.09;4926835;29;20534;-96
2021/12/07 02:57:53;;;;;;;9.32;1.98;;;;;;;6.79;63.60;99824.66;4926253;29;20390;-96
2021/12/07 03:00:24;;;;;;;10.38;1.50;;;;;;;6.80;64.14;99832.41;4923947;29;20032;-96
2021/12/07 03:02:59;;;;;;;10.77;1.70;;;;;;;6.89;64.15;99820.56;4924748;29;20032;-96
2021/12/07 03:05:49;;;;;;;5.57;1.50;;;;;;;6.98;64.00;99817.38;4923958;29;20051;-95
2021/12/07 03:27:31;;;;;;;16.05;3.20;;;;;;;7.36;64.33;99790.59;4946505;29;20035;-96
2021/12/07 03:29:57;;;;;;;12.40;2.60;;;;;;;7.38;64.53;99791.34;4930128;29;20367;-96
2021/12/07 03:32:22;;;;;;;11.80;2.75;;;;;;;7.41;64.72;99791.16;4929484;29;20020;-96
2021/12/07 03:34:47;;;;;;;8.30;1.73;;;;;;;7.42;64.18;99778.94;4931318;29;20047;-96
2021/12/07 03:37:13;;;;;;;10.02;1.60;;;;;;;7.43;63.95;99768.38;4927869;29;20034;-96
2021/12/07 03:39:38;;;;;;;7.95;2.65;;;;;;;7.45;63.98;99770.91;4928797;29;20091;-96
2021/12/07 03:42:04;;;;;;;6.32;1.27;;;;;;;7.51;64.67;99760.88;4927948;29;20048;-96
2021/12/07 03:44:30;;;;;;;9.15;1.98;;;;;;;7.58;65.53;99744.81;4928239;29;20187;-96
2021/12/07 03:46:56;;;;;;;4.20;1.17;;;;;;;7.64;64.77;99749.63;4921101;29;20061;-96
2021/12/07 03:49:22;;;;;;;7.18;1.40;;;;;;;7.69;64.85;99752.78;4920480;29;20028;-96
2021/12/07 03:51:47;;;;;;;7.50;1.20;;;;;;;7.75;63.40;99744.53;4920871;29;20032;-96
2021/12/07 03:54:13;;;;;;;8.15;1.48;;;;;;;7.74;63.81;99735.00;4920363;29;20032;-96
2021/12/07 03:56:38;;;;;;;4.43;1.40;;;;;;;7.81;63.81;99733.66;4920376;29;20028;-96
2021/12/07 03:59:03;;;;;;;9.80;1.40;;;;;;;7.84;64.35;99720.41;4920729;29;20106;-96
2021/12/07 04:01:29;;;;;;;9.30;1.33;;;;;;;7.82;64.40;99716.19;4920480;29;20384;-95
2021/12/07 04:03:55;;;;;;;8.95;1.38;;;;;;;7.92;64.22;99717.28;4919828;29;20047;-96
2021/12/07 04:06:21;;;;;;;9.77;1.88;;;;;;;7.83;63.21;99712.66;4919982;29;20036;-96
2021/12/07 04:08:47;;;;;;;8.48;1.73;;;;;;;7.87;64.08;99708.88;4920774;29;20231;-96
2021/12/07 04:11:13;;;;;;;6.45;1.30;;;;;;;7.56;65.00;99705.72;4921012;29;20483;-96
2021/12/07 04:13:40;;;;;;;6.45;1.10;;;;;;;7.79;64.88;99712.00;4920653;29;20119;-96
2021/12/07 04:16:08;;;;;;;5.32;1.20;;;;;;;7.57;65.25;99701.34;4921014;29;20040;-95
2021/12/07 04:18:34;;;;;;;7.30;1.50;;;;;;;7.57;65.23;99703.97;4920634;29;20027;-96
2021/12/07 04:21:01;;;;;;;9.27;1.23;;;;;;;7.66;65.41;99698.97;4920311;29;20039;-96
2021/12/07 04:23:28;;;;;;;7.55;1.50;;;;;;;7.62;65.24;99694.03;4919086;29;20103;-96
2021/12/07 04:25:53;;;;;;;6.40;1.05;;;;;;;7.59;65.05;99694.25;4919740;29;20482;-95
2021/12/07 04:28:19;;;;;;;3.83;0.82;;;;;;;7.76;65.07;99696.56;4920476;29;20115;-96
2021/12/07 04:30:45;;;;;;;7.47;1.10;;;;;;;7.72;64.41;99698.53;4921063;29;20056;-96
2021/12/07 04:33:12;;;;;;;12.38;2.13;;;;;;;7.73;64.76;99686.31;4920931;29;20028;-96
2021/12/07 04:35:41;;;;;;;6.70;1.20;;;;;;;7.75;64.27;99668.75;4919281;29;20112;-96
2021/12/07 04:38:07;;;;;;;12.85;1.85;;;;;;;7.91;64.35;99660.69;4920270;29;20446;-96
2021/12/07 04:40:33;;;;;;;11.50;1.55;;;;;;;7.84;64.19;99673.34;4920285;29;20059;-96
2021/12/07 04:43:01;;;;;;;9.30;1.35;;;;;;;7.82;64.75;99680.47;4920562;29;20531;-96
2021/12/07 04:58:54;;;;;;;6.68;1.00;;;;;;;7.93;64.91;99617.81;4920802;29;20467;-96
2021/12/07 05:01:19;;;;;;;5.97;1.10;;;;;;;8.02;64.32;99618.13;4920094;29;20020;-96
2021/12/07 05:03:46;;;;;;;13.20;1.77;;;;;;;8.02;64.57;99611.13;4920404;29;20032;-96
2021/12/07 05:06:13;;;;;;;10.48;1.33;;;;;;;8.06;64.93;99604.72;4920428;29;20025;-96
2021/12/07 05:08:55;;;;;;;12.25;1.33;;;;;;;8.02;64.85;99587.59;4920461;29;20096;-96
2021/12/07 05:14:01;;;;;;;5.85;0.90;;;;;;;7.98;64.72;99574.81;4920231;29;19974;-95
2021/12/07 05:19:05;;;;;;;8.98;1.67;;;;;;;7.92;63.37;99550.81;4920762;29;20054;-96
2021/12/07 05:24:20;;;;;;;4.88;1.45;;;;;;;8.02;64.09;99516.19;4919921;29;20038;-96
2021/12/07 05:37:51;;;;;;;10.23;1.00;;;;;;;8.08;62.94;99471.28;4919391;29;20039;-96
2021/12/07 05:40:25;;;;;;;6.72;1.50;;;;;;;8.32;63.35;99469.47;4919259;29;20122;-96
2021/12/07 05:42:51;;;;;;;7.90;1.05;;;;;;;8.24;63.81;99471.00;4919656;29;20470;-96
2021/12/07 05:45:20;;;;;;;7.03;1.40;;;;;;;8.23;63.65;99464.91;4919496;29;20047;-96
2021/12/07 05:47:47;;;;;;;12.40;1.30;;;;;;;8.32;63.69;99453.78;4919423;29;20482;-96
2021/12/07 05:50:16;;;;;;;7.88;1.38;;;;;;;8.36;63.44;99424.81;4918555;29;20383;-96
2021/12/07 05:52:41;;;;;;;6.43;1.42;;;;;;;8.36;63.17;99424.81;4919825;29;20031;-96
2021/12/07 05:55:08;;;;;;;5.72;0.95;;;;;;;8.38;63.66;99418.50;4919431;29;20024;-96
2021/12/07 05:57:33;;;;;;;4.28;0.90;;;;;;;8.42;63.56;99406.06;4920285;29;20036;-96
2021/12/07 05:59:59;;;;;;;10.38;1.27;;;;;;;8.30;62.70;99387.69;4921876;29;20387;-96
2021/12/07 06:02:24;;;;;;;8.68;1.33;;;;;;;8.13;64.75;99380.25;4930884;29;20028;-95
2021/12/07 06:04:50;;;;;;;13.13;1.85;;;;;;;8.58;62.50;99351.63;4918866;29;20036;-96
2021/12/07 06:07:15;;;;;;;12.70;1.45;;;;;;;8.50;62.48;99336.50;4919287;29;20024;-95
2021/12/07 06:09:41;;;;;;;10.48;1.20;;;;;;;8.49;62.76;99341.84;4919637;29;20039;-96
2021/12/07 06:12:07;;;;;;;5.47;1.00;;;;;;;8.62;63.38;99341.75;4917145;29;20036;-96
2021/12/07 06:14:36;;;;;;;10.77;1.38;;;;;;;8.61;62.87;99337.47;4918976;29;20107;-95
2021/12/07 06:17:01;;;;;;;9.23;1.98;;;;;;;8.58;63.02;99338.53;4918983;29;20123;-96
2021/12/07 06:19:27;;;;;;;7.35;0.95;;;;;;;8.61;62.49;99338.31;4918244;29;20047;-95
2021/12/07 06:21:53;;;;;;;9.20;1.58;;;;;;;8.78;62.68;99328.31;4919029;29;20032;-96
2021/12/07 06:24:19;;;;;;;11.55;1.65;;;;;;;8.81;62.87;99320.25;4919390;29;20487;-95
2021/12/07 06:26:44;;;;;;;13.10;2.13;;;;;;;8.96;62.05;99323.44;4919049;29;20032;-95
2021/12/07 06:29:10;;;;;;;14.90;1.63;;;;;;;9.07;61.36;99316.41;4919216;29;20056;-96
2021/12/07 06:31:35;;;;;;;9.50;1.25;;;;;;;9.04;62.13;99316.63;4918705;29;20534;-96
2021/12/07 06:34:01;;;;;;;10.48;1.23;;;;;;;9.01;61.20;99293.31;4918747;29;20025;-96
2021/12/07 06:36:27;;;;;;;15.15;1.45;;;;;;;9.00;61.70;99286.41;4918479;29;20043;-95
2021/12/07 06:38:52;;;;;;;12.35;1.70;;;;;;;9.01;62.49;99280.22;4918529;29;20067;-96
2021/12/07 06:41:18;;;;;;;11.80;1.33;;;;;;;9.08;61.16;99284.03;4918937;29;20059;-96
2021/12/07 06:43:43;;;;;;;11.95;1.25;;;;;;;9.16;60.88;99264.25;4918418;29;20390;-96
2021/12/07 06:46:09;;;;;;;9.43;1.38;;;;;;;8.99;62.12;99269.06;4918953;29;20331;-94
2021/12/07 06:48:34;;;;;;;10.23;1.48;;;;;;;8.82;62.48;99244.19;4918717;29;20033;-96
2021/12/07 06:51:01;;;;;;;9.50;1.50;;;;;;;8.81;63.17;99223.41;4921710;29;20034;-95
2021/12/07 06:53:26;;;;;;;12.52;1.40;;;;;;;8.88;62.73;99229.78;4920697;29;20060;-96
2021/12/07 06:55:52;;;;;;;4.30;1.27;;;;;;;8.87;62.67;99212.44;4922139;29;20098;-96
2021/12/07 06:58:17;;;;;;;14.55;2.42;;;;;;;9.12;62.52;99204.28;4921966;29;20032;-94
2021/12/07 07:00:43;;;;;;;12.73;1.60;;;;;;;9.28;61.32;99195.16;4921438;29;20499;-94
2021/12/07 07:03:08;;;;;;;7.57;1.45;;;;;;;9.23;61.08;99179.00;4921539;29;20040;-94
2021/12/07 07:05:34;;;;;;;13.73;3.28;;;;;;;9.22;61.79;99156.38;4921831;29;20028;-95
2021/12/07 07:08:00;;;;;;;15.80;1.23;;;;;;;9.17;62.32;99154.13;4921144;29;20029;-95
2021/12/07 07:10:25;;;;;;;12.43;1.17;;;;;;;9.30;60.92;99146.09;4921590;29;20466;-95
2021/12/07 07:12:51;;;;;;;11.55;1.58;;;;;;;9.48;60.24;99128.03;4921410;29;20032;-96
2021/12/07 07:15:17;;;;;;;7.43;1.40;;;;;;;9.35;61.18;99125.59;4920581;29;20534;-95
2021/12/07 07:17:43;;;;;;;13.35;1.38;;;;;;;9.37;61.26;99107.94;4921738;29;20054;-95
2021/12/07 07:20:11;;;;;;;11.15;1.60;;;;;;;9.40;61.64;99105.09;4921287;29;20478;-95
2021/12/07 07:22:37;;;;;;;9.27;1.88;;;;;;;9.56;61.16;99107.25;4921422;29;20120;-96
2021/12/07 07:25:05;;;;;;;8.48;1.52;;;;;;;9.57;60.77;99095.78;4922791;29;20064;-95
2021/12/07 07:27:30;;;;;;;12.15;0.93;;;;;;;9.67;60.71;99085.34;4921847;29;20410;-95
2021/12/07 07:29:56;;;;;;;8.52;1.10;;;;;;;9.54;60.19;99077.72;4921706;29;20032;-95
2021/12/07 07:32:21;;;;;;;11.30;1.40;;;;;;;9.32;61.72;99070.81;4921342;29;20028;-96
2021/12/07 07:34:47;;;;;;;13.73;1.98;;;;;;;9.58;60.77;99071.25;4920405;29;20150;-95
2021/12/07 07:37:12;;;;;;;11.55;1.17;;;;;;;9.65;60.99;99058.44;4921712;29;20336;-96
2021/12/07 07:39:39;;;;;;;8.07;1.20;;;;;;;9.78;60.79;99056.44;4921300;29;20554;-95
2021/12/07 07:47:09;;;;;;;7.47;1.35;;;;;;;9.77;60.90;99032.97;4954557;23;20051;-96
2021/12/07 08:02:18;;;;;;;10.07;1.10;;;;;;;9.67;61.21;98988.38;5164175;23;20039;-96
2021/12/07 08:07:18;;;;;;;10.43;1.90;;;;;;;9.99;61.27;98974.25;4973762;23;20526;-91
2021/12/07 08:09:44;;;;;;;8.55;1.20;;;;;;;9.87;62.71;98976.16;4918254;29;20036;-95
2021/12/07 08:12:09;;;;;;;14.43;1.60;;;;;;;10.14;62.60;98970.28;4919653;29;20024;-93
2021/12/07 08:14:35;;;;;;;12.80;1.90;;;;;;;10.16;62.81;98970.16;4925999;29;20043;-96
2021/12/07 08:17:01;;;;;;;9.00;1.13;;;;;;;9.92;63.74;98948.56;5386146;23;20073;-96
2021/12/07 08:19:26;;;;;;;7.70;1.70;;;;;;;10.25;63.40;98946.53;5096862;23;20030;-96
2021/12/07 08:24:27;;;;;;;16.33;1.63;;;;;;;10.03;64.25;98908.31;5548246;23;20069;-96
2021/12/07 08:29:21;;;;;;;9.85;1.52;;;;;;;10.01;64.48;98863.03;5072488;23;20064;-96
2021/12/07 08:31:47;;;;;;;13.05;1.60;;;;;;;9.74;65.49;98837.50;5184596;23;20052;-95
2021/12/07 08:34:13;;;;;;;14.80;1.63;;;;;;;9.69;65.75;98826.59;5056909;23;20047;-95
2021/12/07 08:36:39;;;;;;;18.23;1.67;;;;;;;9.77;66.09;98815.41;4915195;29;20028;-93
2021/12/07 08:39:06;;;;;;;7.50;1.23;;;;;;;9.97;66.08;98803.94;4921191;29;20509;-95
2021/12/07 08:41:31;;;;;;;11.88;1.95;;;;;;;9.83;67.07;98775.53;4914054;29;20028;-95
2021/12/07 08:43:57;;;;;;;13.73;2.10;;;;;;;9.84;67.44;98762.31;4906572;29;20037;-93
2021/12/07 08:46:22;;;;;;;15.20;1.55;;;;;;;9.92;67.53;98759.00;4912983;29;20083;-93
2021/12/07 08:48:48;;;;;;;13.40;1.65;;;;;;;10.01;67.14;98752.06;4901177;29;20032;-94
2021/12/07 08:51:15;;;;;;;15.85;1.80;;;;;;;10.07;67.81;98735.75;4883190;29;20029;-92
2021/12/07 08:54:17;;;;;;;21.90;3.17;;;;;;;10.40;66.42;98729.19;4882268;29;20044;-94
2021/12/07 08:59:44;;;;;;;11.23;1.95;;;;;;;9.90;68.49;98714.56;4883628;29;20048;-94
2021/12/07 09:02:21;;;;;;;15.68;2.20;;;;;;;10.17;67.84;98684.13;4902165;29;20061;-93
2021/12/07 09:04:47;;;;;;;14.30;2.70;;;;;;;10.24;67.50;98677.31;4896980;29;20143;-95
2021/12/07 09:07:13;;;;;;;14.40;2.13;;;;;;;10.21;68.35;98659.25;4905908;29;20060;-92
2021/12/07 09:09:38;;;;;;;17.88;2.38;;;;;;;10.18;68.23;98642.97;4917941;29;20032;-92
2021/12/07 09:12:06;;;;;;;11.07;2.25;;;;;;;10.38;67.93;98628.81;4892391;29;20037;-93
2021/12/07 09:14:33;;;;;;;13.55;1.98;;;;;;;10.43;67.99;98616.09;4880322;29;20033;-93
2021/12/07 09:16:59;;;;;;;13.90;1.75;;;;;;;10.45;68.45;98602.84;4894186;29;20037;-93
2021/12/07 09:19:25;;;;;;;13.95;1.70;;;;;;;10.48;68.51;98586.78;4905232;29;20028;-94
2021/12/07 09:21:50;;;;;;;13.55;1.75;;;;;;;10.39;69.44;98574.56;4901112;29;20037;-94
2021/12/07 09:24:16;;;;;;;27.45;2.00;;;;;;;10.46;69.16;98573.81;4902811;29;20037;-94
2021/12/07 09:26:41;;;;;;;18.60;2.67;;;;;;;10.15;70.00;98565.44;4893039;29;20108;-95
2021/12/07 09:29:07;;;;;;;21.90;2.10;;;;;;;10.52;69.54;98578.50;4882553;29;20051;-95
2021/12/07 09:31:33;;;;;;;16.27;3.22;;;;;;;10.36;70.65;98561.75;4882971;29;20047;-95
2021/12/07 09:33:59;;;;;;;13.63;1.83;;;;;;;10.16;71.65;98563.63;4882215;29;20518;-95
2021/12/07 09:36:25;;;;;;;12.50;2.20;;;;;;;10.14;72.19;98542.78;4883245;29;20021;-96
2021/12/07 09:38:51;;;;;;;17.98;2.25;;;;;;;10.29;71.88;98537.88;4889123;29;20032;-95
2021/12/07 09:41:18;;;;;;;20.65;2.80;;;;;;;10.10;72.49;98534.38;4902014;29;20084;-96
2021/12/07 09:43:45;;;;;;;19.30;2.85;;;;;;;10.16;72.56;98514.63;4907600;29;20025;-96
2021/12/07 09:46:12;;;;;;;21.23;2.30;;;;;;;10.59;71.59;98496.53;4898757;29;20433;-96
2021/12/07 09:48:37;;;;;;;24.05;2.33;;;;;;;10.77;70.38;98486.00;4895504;29;20037;-96
2021/12/07 09:53:53;;;;;;;17.13;1.92;;;;;;;10.76;70.53;98444.97;5309357;23;20143;-95
2021/12/07 09:56:20;;;;;;;18.38;2.47;;;;;;;10.62;71.09;98443.72;4919197;29;20036;-95
2021/12/07 09:58:48;;;;;;;23.02;3.20;;;;;;;10.32;72.27;98453.66;4919294;29;20060;-94
2021/12/07 10:01:14;;;;;;;19.48;2.40;;;;;;;10.52;71.90;98430.69;4910246;29;20280;-96
2021/12/07 10:03:41;;;;;;;17.98;2.15;;;;;;;10.62;71.29;98412.22;4921917;29;20035;-95
2021/12/07 10:06:07;;;;;;;14.63;1.65;;;;;;;10.67;71.17;98383.75;4926482;29;20029;-95
2021/12/07 10:08:33;;;;;;;11.75;1.83;;;;;;;10.67;71.35;98389.00;4927149;29;20031;-95
2021/12/07 10:11:01;;;;;;;15.23;2.20;;;;;;;10.69;71.59;98384.41;4932662;29;20020;-95
2021/12/07 10:13:28;;;;;;;27.67;2.63;;;;;;;10.68;71.72;98378.34;4928667;29;20033;-94
2021/12/07 10:15:56;;;;;;;20.67;2.42;;;;;;;10.88;71.42;98357.09;4931690;29;20032;-95
2021/12/07 10:18:28;;;;;;;25.60;3.38;;;;;;;10.77;72.21;98350.31;4911398;29;20013;-95
2021/12/07 10:20:58;;;;;;;12.15;2.28;;;;;;;10.71;72.34;98351.78;4928420;29;20100;-96
2021/12/07 10:23:32;;;;;;;15.43;2.00;;;;;;;10.77;72.44;98339.81;5501458;23;20035;-96
2021/12/07 10:26:14;;;;;;;11.95;1.67;;;;;;;10.85;72.72;98305.72;5226645;23;20044;-96
2021/12/07 10:28:50;;;;;;;12.43;1.95;;;;;;;10.85;72.88;98299.66;5501370;23;20880;-96
2021/12/07 10:54:28;;;;;;;16.67;2.03;;;;;;;10.43;78.79;98201.56;5859509;23;23004;-96
2021/12/07 12:19:44;;;;;;;6.78;1.13;;;;;;;11.48;76.67;97718.47;2195278;23;20068;-95
2021/12/07 12:22:26;;;;;;;7.70;1.35;;;;;;;11.65;75.54;97702.56;4920882;29;20044;-92
2021/12/07 12:24:55;;;;;;;5.10;1.08;;;;;;;11.36;76.08;97656.81;4968098;23;20052;-96
2021/12/07 12:27:31;;;;;;;7.45;1.30;;;;;;;11.17;77.73;97680.94;4907963;29;20037;-96
2021/12/07 13:16:20;;;;;;;16.70;2.20;;;;;;;11.93;68.84;97731.78;4945420;29;20039;-96
2021/12/07 13:18:46;;;;;;;12.38;2.05;;;;;;;12.00;68.93;97708.19;4945408;29;20023;-96
2021/12/07 13:21:25;;;;;;;14.77;2.17;;;;;;;11.96;69.13;97714.81;4943365;29;20031;-96
2021/12/07 13:23:59;;;;;;;11.20;1.73;;;;;;;12.17;69.16;97712.31;4925502;29;20055;-96
2021/12/07 13:26:25;;;;;;;18.42;2.78;;;;;;;11.94;69.00;97701.03;4921692;29;20036;-96
2021/12/07 13:29:17;;;;;;;21.67;2.33;;;;;;;12.23;69.14;97716.84;4920253;29;20032;-96
2021/12/07 13:31:46;;;;;;;19.55;2.38;;;;;;;12.21;68.95;97700.41;4921075;29;20031;-96
2021/12/07 13:34:17;;;;;;;21.25;2.80;;;;;;;12.21;68.48;97686.47;4921149;29;20501;-96
2021/12/07 13:36:58;;;;;;;24.70;3.75;;;;;;;12.30;68.71;97674.81;4921330;29;20041;-95
2021/12/07 13:39:23;;;;;;;22.30;3.92;;;;;;;12.21;68.61;97671.47;4921842;29;20035;-96
2021/12/07 13:42:00;;;;;;;27.55;3.45;;;;;;;12.21;69.02;97663.59;4921229;29;20024;-96
2021/12/07 13:44:27;;;;;;;26.95;4.60;;;;;;;12.20;68.55;97654.06;4919451;29;20103;-95
2021/12/07 13:47:00;;;;;;;19.88;3.00;;;;;;;12.39;67.81;97644.78;5044105;23;20138;-95
2021/12/07 13:49:25;;;;;;;35.65;5.18;;;;;;;12.26;68.39;97648.09;4948335;29;20035;-96
2021/12/07 13:51:52;;;;;;;27.65;3.83;;;;;;;11.75;67.51;97653.22;4950244;29;20039;-96
2021/12/07 13:54:21;;;;;;;26.98;3.85;;;;;;;12.13;67.39;97650.53;4947544;29;20038;-96
2021/12/07 13:56:49;;;;;;;25.00;4.13;;;;;;;12.29;65.69;97647.72;4946918;29;20020;-96
2021/12/07 13:59:18;;;;;;;38.78;4.65;;;;;;;12.33;66.73;97647.34;4945772;29;20043;-96
2021/12/07 14:01:55;;;;;;;36.67;5.95;;;;;;;12.18;66.83;97649.97;4933003;29;20067;-96
2021/12/07 14:04:24;;;;;;;28.23;5.45;;;;;;;12.26;67.11;97653.34;4925899;29;20029;-95
2021/12/07 14:06:51;;;;;;;31.52;4.43;;;;;;;12.41;66.10;97661.22;4970625;23;20075;-96
2021/12/07 14:09:17;;;;;;;36.10;5.40;;;;;;;12.38;66.18;97644.97;4929923;29;20039;-95
2021/12/07 14:11:42;;;;;;;26.17;4.18;;;;;;;12.38;67.16;97645.81;4925799;29;20115;-96
2021/12/07 14:14:14;;;;;;;30.15;4.15;;;;;;;12.02;68.50;97648.34;4910279;29;20056;-95
2021/12/07 14:16:40;;;;;;;;;;;;;;;12.55;67.54;97651.66;4908029;29;20105;-96
2021/12/07 14:19:06;;;;;;;28.17;4.30;;;;;;;12.36;67.24;97646.97;5042452;23;19926;-95
2021/12/07 14:21:32;;;;;;;40.00;4.13;;;;;;;12.52;66.89;97631.00;4945383;29;20028;-95
2021/12/07 14:24:07;;;;;;;25.95;4.15;;;;;;;12.39;66.10;97625.56;4947890;29;20032;-96
2021/12/07 14:26:36;;;;;;;33.25;4.60;;;;;;;12.88;66.16;97640.72;4926031;29;20036;-96
2021/12/07 14:29:09;;;;;;;27.23;3.97;;;;;;;12.92;66.47;97628.78;4924324;29;20063;-96
2021/12/07 14:31:43;;;;;;;31.70;4.90;;;;;;;12.86;65.88;97626.91;4924556;29;20030;-95
2021/12/07 14:34:12;;;;;;;26.40;4.28;;;;;;;12.60;65.94;97616.88;4924090;29;20051;-96
2021/12/07 14:36:43;;;;;;;35.78;5.03;;;;;;;12.70;66.09;97610.34;4923020;29;20517;-95
2021/12/07 14:39:12;;;;;;;29.57;4.73;;;;;;;12.67;66.08;97612.53;4924022;29;20115;-96
2021/12/07 14:42:02;;;;;;;26.38;3.58;;;;;;;12.74;66.37;97612.59;4923157;29;20253;-96
2021/12/07 14:44:33;;;;;;;27.85;5.28;;;;;;;12.79;65.73;97607.59;4918998;29;20044;-93
2021/12/07 14:47:04;;;;;;;24.58;3.88;;;;;;;12.72;65.97;97598.78;4923481;29;20028;-96
2021/12/07 14:49:31;;;;;;;32.70;5.30;;;;;;;12.58;65.51;97592.56;4928388;29;20091;-95
2021/12/07 14:51:57;;;;;;;28.33;4.63;;;;;;;12.26;66.73;97579.69;4943086;29;20018;-95
2021/12/07 14:54:23;;;;;;;24.10;4.00;;;;;;;12.45;65.76;97585.34;4940691;29;20390;-94
2021/12/07 14:56:49;;;;;;;31.25;4.68;;;;;;;12.01;66.13;97575.72;4925658;29;20028;-96
2021/12/07 14:59:19;;;;;;;29.08;5.03;;;;;;;12.03;66.13;97568.47;4922576;29;20036;-94
2021/12/07 15:01:53;;;;;;;28.92;4.60;;;;;;;12.07;66.45;97588.16;4922684;29;20111;-95
2021/12/07 15:04:19;;;;;;;37.95;4.80;;;;;;;11.67;66.49;97585.75;4923096;29;20368;-94
2021/12/07 15:06:55;;;;;;;27.33;4.55;;;;;;;11.82;66.49;97587.56;4923239;29;20095;-95
2021/12/07 15:09:21;;;;;;;26.20;4.60;;;;;;;12.06;65.70;97589.13;4938597;29;20027;-94
2021/12/07 15:11:50;;;;;;;38.92;5.07;;;;;;;12.18;64.61;97574.50;4939124;29;20462;-94
2021/12/07 15:14:19;;;;;;;20.65;3.67;;;;;;;12.23;65.14;97574.78;4934086;29;20028;-94
2021/12/07 15:16:48;;;;;;;37.08;5.38;;;;;;;12.23;64.92;97564.25;4922568;29;20155;-94
2021/12/07 15:19:14;;;;;;;33.85;5.22;;;;;;;12.00;65.31;97558.31;4922248;29;20509;-95
2021/12/07 15:21:40;;;;;;;30.08;4.30;;;;;;;12.11;64.91;97563.09;4922363;29;20032;-95
2021/12/07 15:24:07;;;;;;;31.42;4.45;;;;;;;11.92;65.04;97567.09;4923368;29;20036;-94
2021/12/07 15:26:32;;;;;;;31.58;4.53;;;;;;;12.07;64.82;97572.38;4923139;29;20095;-94
2021/12/07 15:29:00;;;;;;;34.42;5.78;;;;;;;12.12;64.65;97572.63;4923108;29;20032;-94
2021/12/07 15:31:28;;;;;;;24.77;4.47;;;;;;;11.51;65.86;97576.22;4923227;29;20039;-95
2021/12/07 15:33:55;;;;;;;30.35;4.47;;;;;;;12.00;64.41;97568.81;4922554;29;20099;-94
2021/12/07 15:36:29;;;;;;;28.67;4.20;;;;;;;11.99;63.68;97567.22;4922207;29;20111;-94
2021/12/07 15:39:10;;;;;;;27.45;4.07;;;;;;;11.95;64.00;97561.50;4925573;29;20024;-95
2021/12/07 15:41:39;;;;;;;41.00;8.35;;;;;;;11.65;65.28;97556.22;4935217;29;20027;-95
2021/12/07 15:44:05;;;;;;;25.13;4.15;;;;;;;11.46;65.21;97552.28;4935912;29;20486;-94
2021/12/07 15:46:31;;;;;;;29.33;5.90;;;;;;;11.50;65.11;97553.56;4925338;29;20039;-96
2021/12/07 15:48:58;;;;;;;30.85;3.92;;;;;;;11.08;65.22;97523.44;5013823;23;20040;-96
2021/12/07 15:53:58;;;;;;;27.50;3.63;;;;;;;11.64;64.27;97512.53;5580049;23;20026;-96
2021/12/07 15:56:24;;;;;;;24.63;4.13;;;;;;;11.47;64.22;97521.56;5161648;23;20032;-95
2021/12/07 15:58:51;;;;;;;27.73;4.82;;;;;;;11.47;63.88;97518.94;4930123;29;20035;-96
2021/12/07 16:11:30;;;;;;;33.97;4.45;;;;;;;11.39;63.87;97519.84;4944152;29;20490;-95
2021/12/07 16:14:00;;;;;;;27.92;3.55;;;;;;;11.14;65.26;97515.81;4940499;29;20035;-94
2021/12/07 16:16:29;;;;;;;30.27;3.80;;;;;;;10.88;64.66;97510.00;4934065;29;20091;-93
2021/12/07 16:21:30;;;;;;;29.77;4.55;;;;;;;10.64;64.16;97511.03;4950761;23;20051;-96
2021/12/07 16:23:57;;;;;;;29.67;3.88;;;;;;;10.96;63.47;97509.13;4923641;29;20036;-96
2021/12/07 16:26:23;;;;;;;23.10;3.53;;;;;;;10.80;63.18;97496.13;4907900;29;20029;-96
2021/12/07 16:28:54;;;;;;;21.65;2.47;;;;;;;11.02;62.74;97511.03;4912408;29;20025;-96
2021/12/07 16:31:21;;;;;;;24.50;3.43;;;;;;;10.98;62.28;97517.63;4905018;29;20077;-95
2021/12/07 16:33:48;;;;;;;15.57;2.60;;;;;;;11.04;62.52;97510.88;4894353;29;20327;-95